sensor_id;sensor_type;location;lat;lon;timestamp;pressure;altitude;pressure_sealevel;temperature;humidity
51460;BME280;37534;39.772;2.718;2024-03-25T00:02:07;100912.19;;;14.44;100.00
51460;BME280;37534;39.772;2.718;2024-03-25T00:04:33;100927.34;;;14.33;100.00
51460;BME280;37534;39.772;2.718;2024-03-25T00:06:58;100936.94;;;14.53;100.00
51460;BME280;37534;39.772;2.718;2024-03-25T00:09:24;100930.19;;;14.49;100.00
51460;BME280;37534;39.772;2.718;2024-03-25T00:11:50;100915.13;;;14.58;100.00
51460;BME280;37534;39.772;2.718;2024-03-25T00:14:20;100910.78;;;14.59;100.00
51460;BME280;37534;39.772;2.718;2024-03-25T00:16:46;100916.19;;;14.53;100.00
51460;BME280;37534;39.772;2.718;2024-03-25T00:19:12;100916.00;;;14.57;100.00
51460;BME280;37534;39.772;2.718;2024-03-25T00:21:40;100917.03;;;14.53;100.00
51460;BME280;37534;39.772;2.718;2024-03-25T00:24:07;100906.78;;;14.50;100.00
51460;BME280;37534;39.772;2.718;2024-03-25T00:26:33;100899.75;;;14.52;100.00
51460;BME280;37534;39.772;2.718;2024-03-25T00:28:58;100863.69;;;14.46;100.00
51460;BME280;37534;39.772;2.718;2024-03-25T00:31:24;100841.31;;;14.42;100.00
51460;BME280;37534;39.772;2.718;2024-03-25T00:33:49;100831.97;;;14.38;100.00
51460;BME280;37534;39.772;2.718;2024-03-25T00:36:15;100850.88;;;14.41;100.00
51460;BME280;37534;39.772;2.718;2024-03-25T00:38:41;100834.69;;;14.35;100.00
51460;BME280;37534;39.772;2.718;2024-03-25T00:41:06;100844.69;;;14.44;100.00
51460;BME280;37534;39.772;2.718;2024-03-25T00:43:33;100829.84;;;14.48;100.00
51460;BME280;37534;39.772;2.718;2024-03-25T00:45:58;100817.25;;;14.38;100.00
51460;BME280;37534;39.772;2.718;2024-03-25T00:48:24;100815.34;;;14.21;100.00
51460;BME280;37534;39.772;2.718;2024-03-25T00:50:50;100801.81;;;14.13;100.00
51460;BME280;37534;39.772;2.718;2024-03-25T00:53:15;100802.59;;;14.15;100.00
51460;BME280;37534;39.772;2.718;2024-03-25T00:55:41;100795.56;;;14.17;100.00
51460;BME280;37534;39.772;2.718;2024-03-25T00:58:06;100780.50;;;14.27;100.00
51460;BME280;37534;39.772;2.718;2024-03-25T01:00:32;100769.63;;;14.17;100.00
51460;BME280;37534;39.772;2.718;2024-03-25T01:02:57;100763.66;;;14.15;100.00
51460;BME280;37534;39.772;2.718;2024-03-25T01:05:23;100758.00;;;14.05;100.00
51460;BME280;37534;39.772;2.718;2024-03-25T01:07:48;100753.81;;;14.01;100.00
51460;BME280;37534;39.772;2.718;2024-03-25T01:10:15;100742.69;;;14.21;100.00
51460;BME280;37534;39.772;2.718;2024-03-25T01:12:41;100733.78;;;14.27;100.00
51460;BME280;37534;39.772;2.718;2024-03-25T01:15:07;100733.53;;;14.33;100.00
51460;BME280;37534;39.772;2.718;2024-03-25T01:17:38;100712.97;;;14.29;100.00
51460;BME280;37534;39.772;2.718;2024-03-25T01:20:04;100706.63;;;14.36;100.00
51460;BME280;37534;39.772;2.718;2024-03-25T01:22:37;100709.47;;;14.50;100.00
51460;BME280;37534;39.772;2.718;2024-03-25T01:25:02;100682.16;;;14.41;100.00
51460;BME280;37534;39.772;2.718;2024-03-25T01:27:28;100676.63;;;14.49;100.00
51460;BME280;37534;39.772;2.718;2024-03-25T01:29:56;100650.16;;;14.41;100.00
51460;BME280;37534;39.772;2.718;2024-03-25T01:32:22;100645.63;;;14.46;100.00
51460;BME280;37534;39.772;2.718;2024-03-25T01:34:48;100636.78;;;14.50;100.00
51460;BME280;37534;39.772;2.718;2024-03-25T01:37:13;100617.69;;;14.51;100.00
51460;BME280;37534;39.772;2.718;2024-03-25T01:39:39;100614.97;;;14.54;100.00
51460;BME280;37534;39.772;2.718;2024-03-25T01:42:04;100584.69;;;14.34;100.00
51460;BME280;37534;39.772;2.718;2024-03-25T01:44:30;100578.03;;;14.29;100.00
51460;BME280;37534;39.772;2.718;2024-03-25T01:46:56;100568.59;;;14.26;100.00
51460;BME280;37534;39.772;2.718;2024-03-25T01:49:21;100555.03;;;14.19;100.00
51460;BME280;37534;39.772;2.718;2024-03-25T01:51:47;100545.72;;;14.15;100.00
51460;BME280;37534;39.772;2.718;2024-03-25T01:54:13;100545.66;;;14.17;100.00
51460;BME280;37534;39.772;2.718;2024-03-25T01:56:41;100545.97;;;14.30;100.00
51460;BME280;37534;39.772;2.718;2024-03-25T01:59:08;100524.44;;;14.27;100.00
51460;BME280;37534;39.772;2.718;2024-03-25T02:01:34;100504.59;;;14.26;100.00
51460;BME280;37534;39.772;2.718;2024-03-25T02:04:00;100488.72;;;14.33;100.00
51460;BME280;37534;39.772;2.718;2024-03-25T02:06:27;100447.00;;;14.37;100.00
51460;BME280;37534;39.772;2.718;2024-03-25T02:08:54;100431.84;;;14.47;100.00
51460;BME280;37534;39.772;2.718;2024-03-25T02:11:22;100416.84;;;14.35;100.00
51460;BME280;37534;39.772;2.718;2024-03-25T02:13:50;100410.06;;;14.32;100.00
51460;BME280;37534;39.772;2.718;2024-03-25T02:16:15;100388.28;;;14.35;100.00
51460;BME280;37534;39.772;2.718;2024-03-25T02:18:41;100372.72;;;14.35;100.00
51460;BME280;37534;39.772;2.718;2024-03-25T02:21:06;100383.41;;;14.29;100.00
51460;BME280;37534;39.772;2.718;2024-03-25T02:23:32;100387.97;;;14.23;100.00
51460;BME280;37534;39.772;2.718;2024-03-25T02:25:59;100351.69;;;14.22;100.00
51460;BME280;37534;39.772;2.718;2024-03-25T02:28:25;100323.66;;;14.11;100.00
51460;BME280;37534;39.772;2.718;2024-03-25T02:30:51;100235.28;;;13.97;100.00
51460;BME280;37534;39.772;2.718;2024-03-25T02:33:16;100245.16;;;14.42;100.00
51460;BME280;37534;39.772;2.718;2024-03-25T02:35:43;100251.44;;;14.56;100.00
51460;BME280;37534;39.772;2.718;2024-03-25T02:38:09;100236.63;;;14.40;100.00
51460;BME280;37534;39.772;2.718;2024-03-25T02:40:36;100223.22;;;14.67;100.00
51460;BME280;37534;39.772;2.718;2024-03-25T02:43:03;100230.31;;;14.63;100.00
51460;BME280;37534;39.772;2.718;2024-03-25T02:45:29;100280.06;;;14.54;100.00
51460;BME280;37534;39.772;2.718;2024-03-25T02:47:54;100285.28;;;14.54;100.00
51460;BME280;37534;39.772;2.718;2024-03-25T02:50:20;100273.38;;;14.50;100.00
51460;BME280;37534;39.772;2.718;2024-03-25T02:52:45;100255.91;;;14.71;98.27
51460;BME280;37534;39.772;2.718;2024-03-25T02:55:11;100253.38;;;14.70;95.71
51460;BME280;37534;39.772;2.718;2024-03-25T02:57:37;100268.03;;;14.53;96.04
51460;BME280;37534;39.772;2.718;2024-03-25T03:00:02;100270.34;;;14.77;93.45
51460;BME280;37534;39.772;2.718;2024-03-25T03:02:29;100255.78;;;14.90;91.70
51460;BME280;37534;39.772;2.718;2024-03-25T03:04:54;100263.22;;;14.98;92.12
51460;BME280;37534;39.772;2.718;2024-03-25T03:07:20;100250.31;;;14.96;91.22
51460;BME280;37534;39.772;2.718;2024-03-25T03:09:45;100259.69;;;14.99;89.32
51460;BME280;37534;39.772;2.718;2024-03-25T03:12:11;100240.22;;;14.90;90.70
51460;BME280;37534;39.772;2.718;2024-03-25T03:14:37;100238.81;;;15.00;91.58
51460;BME280;37534;39.772;2.718;2024-03-25T03:17:03;100244.63;;;15.06;88.85
51460;BME280;37534;39.772;2.718;2024-03-25T03:19:30;100223.53;;;15.12;87.67
51460;BME280;37534;39.772;2.718;2024-03-25T03:21:56;100231.41;;;15.10;86.85
51460;BME280;37534;39.772;2.718;2024-03-25T03:24:22;100221.38;;;15.02;87.27
51460;BME280;37534;39.772;2.718;2024-03-25T03:26:48;100271.69;;;15.01;91.95
51460;BME280;37534;39.772;2.718;2024-03-25T03:29:14;100261.91;;;15.07;94.97
51460;BME280;37534;39.772;2.718;2024-03-25T03:31:39;100256.31;;;14.97;97.49
51460;BME280;37534;39.772;2.718;2024-03-25T03:34:05;100247.16;;;14.90;100.00
51460;BME280;37534;39.772;2.718;2024-03-25T03:36:30;100235.94;;;14.89;100.00
51460;BME280;37534;39.772;2.718;2024-03-25T03:38:56;100243.19;;;15.00;97.79
51460;BME280;37534;39.772;2.718;2024-03-25T03:41:22;100213.00;;;14.97;96.56
51460;BME280;37534;39.772;2.718;2024-03-25T03:43:47;100238.75;;;15.02;99.98
51460;BME280;37534;39.772;2.718;2024-03-25T03:46:13;100249.91;;;15.04;100.00
51460;BME280;37534;39.772;2.718;2024-03-25T03:48:39;100239.16;;;14.94;100.00
51460;BME280;37534;39.772;2.718;2024-03-25T03:51:05;100233.84;;;14.80;100.00
51460;BME280;37534;39.772;2.718;2024-03-25T03:53:32;100232.63;;;14.70;100.00
51460;BME280;37534;39.772;2.718;2024-03-25T03:56:03;100218.69;;;14.71;100.00
51460;BME280;37534;39.772;2.718;2024-03-25T03:58:30;100227.03;;;14.60;100.00
51460;BME280;37534;39.772;2.718;2024-03-25T04:00:56;100218.38;;;14.42;100.00
51460;BME280;37534;39.772;2.718;2024-03-25T04:03:21;100193.13;;;14.28;100.00
51460;BME280;37534;39.772;2.718;2024-03-25T04:05:47;100219.16;;;14.26;100.00
51460;BME280;37534;39.772;2.718;2024-03-25T04:08:13;100215.56;;;14.29;100.00
51460;BME280;37534;39.772;2.718;2024-03-25T04:10:39;100226.84;;;14.28;100.00
51460;BME280;37534;39.772;2.718;2024-03-25T04:13:06;100233.88;;;14.26;100.00
51460;BME280;37534;39.772;2.718;2024-03-25T04:15:36;100215.94;;;14.21;98.37
51460;BME280;37534;39.772;2.718;2024-03-25T04:18:03;100205.41;;;14.24;99.19
51460;BME280;37534;39.772;2.718;2024-03-25T04:20:29;100206.78;;;14.32;98.88
51460;BME280;37534;39.772;2.718;2024-03-25T04:22:55;100185.59;;;14.41;96.29
51460;BME280;37534;39.772;2.718;2024-03-25T04:25:22;100187.78;;;14.49;94.31
51460;BME280;37534;39.772;2.718;2024-03-25T04:27:48;100197.34;;;14.48;95.46
51460;BME280;37534;39.772;2.718;2024-03-25T04:30:14;100192.56;;;14.39;96.39
51460;BME280;37534;39.772;2.718;2024-03-25T04:32:40;100194.72;;;14.31;97.73
51460;BME280;37534;39.772;2.718;2024-03-25T04:35:06;100184.66;;;14.24;97.11
51460;BME280;37534;39.772;2.718;2024-03-25T04:37:34;100182.44;;;14.17;97.69
51460;BME280;37534;39.772;2.718;2024-03-25T04:39:59;100193.91;;;14.13;99.61
51460;BME280;37534;39.772;2.718;2024-03-25T04:42:25;100193.56;;;14.19;98.23
51460;BME280;37534;39.772;2.718;2024-03-25T04:44:51;100201.44;;;14.35;96.29
51460;BME280;37534;39.772;2.718;2024-03-25T04:47:17;100197.75;;;14.39;94.90
51460;BME280;37534;39.772;2.718;2024-03-25T04:49:44;100225.63;;;14.35;96.66
51460;BME280;37534;39.772;2.718;2024-03-25T04:52:11;100230.66;;;14.21;100.00
51460;BME280;37534;39.772;2.718;2024-03-25T04:54:41;100237.69;;;14.19;100.00
51460;BME280;37534;39.772;2.718;2024-03-25T04:57:06;100244.00;;;14.13;100.00
51460;BME280;37534;39.772;2.718;2024-03-25T04:59:32;100250.13;;;14.30;100.00
51460;BME280;37534;39.772;2.718;2024-03-25T05:01:59;100238.13;;;14.10;100.00
51460;BME280;37534;39.772;2.718;2024-03-25T05:04:24;100241.72;;;14.07;100.00
51460;BME280;37534;39.772;2.718;2024-03-25T05:06:50;100234.63;;;14.11;100.00
51460;BME280;37534;39.772;2.718;2024-03-25T05:09:16;100243.97;;;14.32;100.00
51460;BME280;37534;39.772;2.718;2024-03-25T05:11:42;100229.75;;;14.22;100.00
51460;BME280;37534;39.772;2.718;2024-03-25T05:14:08;100214.72;;;14.11;100.00
51460;BME280;37534;39.772;2.718;2024-03-25T05:16:33;100208.91;;;14.06;100.00
51460;BME280;37534;39.772;2.718;2024-03-25T05:18:59;100218.31;;;14.26;100.00
51460;BME280;37534;39.772;2.718;2024-03-25T05:21:24;100245.41;;;14.20;100.00
51460;BME280;37534;39.772;2.718;2024-03-25T05:23:50;100246.47;;;14.16;100.00
51460;BME280;37534;39.772;2.718;2024-03-25T05:26:16;100238.81;;;14.13;100.00
51460;BME280;37534;39.772;2.718;2024-03-25T05:28:41;100255.97;;;14.16;100.00
51460;BME280;37534;39.772;2.718;2024-03-25T05:31:08;100234.16;;;14.02;100.00
51460;BME280;37534;39.772;2.718;2024-03-25T05:33:33;100200.19;;;13.90;100.00
51460;BME280;37534;39.772;2.718;2024-03-25T05:36:00;100225.16;;;14.10;100.00
51460;BME280;37534;39.772;2.718;2024-03-25T05:38:26;100239.13;;;14.07;100.00
51460;BME280;37534;39.772;2.718;2024-03-25T05:40:52;100245.22;;;14.06;100.00
51460;BME280;37534;39.772;2.718;2024-03-25T05:43:17;100236.69;;;14.04;100.00
51460;BME280;37534;39.772;2.718;2024-03-25T05:46:03;100232.41;;;14.03;100.00
51460;BME280;37534;39.772;2.718;2024-03-25T05:48:29;100213.47;;;14.01;100.00
51460;BME280;37534;39.772;2.718;2024-03-25T05:53:23;100244.03;;;13.94;100.00
51460;BME280;37534;39.772;2.718;2024-03-25T05:55:48;100236.06;;;13.80;100.00
51460;BME280;37534;39.772;2.718;2024-03-25T05:58:14;100245.31;;;13.85;100.00
51460;BME280;37534;39.772;2.718;2024-03-25T06:00:39;100248.03;;;14.01;100.00
51460;BME280;37534;39.772;2.718;2024-03-25T06:03:05;100246.13;;;14.05;100.00
51460;BME280;37534;39.772;2.718;2024-03-25T06:05:30;100254.06;;;14.02;100.00
51460;BME280;37534;39.772;2.718;2024-03-25T06:08:01;100275.72;;;14.01;100.00
51460;BME280;37534;39.772;2.718;2024-03-25T06:10:26;100280.66;;;13.88;100.00
51460;BME280;37534;39.772;2.718;2024-03-25T06:12:52;100290.31;;;13.84;100.00
51460;BME280;37534;39.772;2.718;2024-03-25T06:15:17;100301.41;;;13.88;100.00
51460;BME280;37534;39.772;2.718;2024-03-25T06:17:43;100264.97;;;13.72;100.00
51460;BME280;37534;39.772;2.718;2024-03-25T06:20:10;100260.75;;;13.88;100.00
51460;BME280;37534;39.772;2.718;2024-03-25T06:22:35;100263.63;;;14.19;95.32
51460;BME280;37534;39.772;2.718;2024-03-25T06:25:01;100251.22;;;14.25;92.04
51460;BME280;37534;39.772;2.718;2024-03-25T06:27:26;100250.47;;;14.41;88.81
51460;BME280;37534;39.772;2.718;2024-03-25T06:29:52;100227.88;;;14.43;87.93
51460;BME280;37534;39.772;2.718;2024-03-25T06:32:37;100232.91;;;14.63;86.15
51460;BME280;37534;39.772;2.718;2024-03-25T06:35:21;100222.06;;;14.55;87.87
51460;BME280;37534;39.772;2.718;2024-03-25T06:37:47;100215.69;;;14.62;85.35
51460;BME280;37534;39.772;2.718;2024-03-25T06:40:12;100221.91;;;14.58;88.51
51460;BME280;37534;39.772;2.718;2024-03-25T06:42:38;100224.34;;;14.79;90.05
51460;BME280;37534;39.772;2.718;2024-03-25T06:45:04;100197.00;;;14.89;80.59
51460;BME280;37534;39.772;2.718;2024-03-25T06:47:29;100210.09;;;15.04;76.99
51460;BME280;37534;39.772;2.718;2024-03-25T06:49:55;100201.22;;;15.08;76.47
51460;BME280;37534;39.772;2.718;2024-03-25T06:52:20;100184.56;;;15.12;75.45
51460;BME280;37534;39.772;2.718;2024-03-25T06:54:46;100176.56;;;15.15;78.10
51460;BME280;37534;39.772;2.718;2024-03-25T06:57:11;100189.84;;;15.26;81.15
51460;BME280;37534;39.772;2.718;2024-03-25T06:59:37;100180.38;;;15.41;85.17
51460;BME280;37534;39.772;2.718;2024-03-25T07:02:02;100191.00;;;15.68;81.86
51460;BME280;37534;39.772;2.718;2024-03-25T07:04:28;100182.75;;;15.77;68.86
51460;BME280;37534;39.772;2.718;2024-03-25T07:06:53;100166.03;;;15.82;69.41
51460;BME280;37534;39.772;2.718;2024-03-25T07:09:19;100161.09;;;16.07;72.75
51460;BME280;37534;39.772;2.718;2024-03-25T07:11:45;100153.97;;;16.25;80.92
51460;BME280;37534;39.772;2.718;2024-03-25T07:14:12;100160.72;;;16.58;87.66
51460;BME280;37534;39.772;2.718;2024-03-25T07:16:37;100145.66;;;16.78;90.05
51460;BME280;37534;39.772;2.718;2024-03-25T07:19:03;100133.13;;;16.99;91.17
51460;BME280;37534;39.772;2.718;2024-03-25T07:21:29;100139.41;;;17.23;90.33
51460;BME280;37534;39.772;2.718;2024-03-25T07:23:54;100128.09;;;17.37;87.12
51460;BME280;37534;39.772;2.718;2024-03-25T07:26:20;100117.88;;;17.61;86.78
51460;BME280;37534;39.772;2.718;2024-03-25T07:28:45;100119.03;;;17.97;86.00
51460;BME280;37534;39.772;2.718;2024-03-25T07:31:11;100116.31;;;18.12;85.53
51460;BME280;37534;39.772;2.718;2024-03-25T07:33:36;100124.41;;;18.21;83.91
51460;BME280;37534;39.772;2.718;2024-03-25T07:36:02;100114.38;;;18.54;81.68
51460;BME280;37534;39.772;2.718;2024-03-25T07:38:28;100108.50;;;18.89;80.25
51460;BME280;37534;39.772;2.718;2024-03-25T07:40:53;100097.91;;;19.27;79.08
51460;BME280;37534;39.772;2.718;2024-03-25T07:43:19;100112.44;;;19.55;76.02
51460;BME280;37534;39.772;2.718;2024-03-25T07:45:44;100119.34;;;19.56;71.33
51460;BME280;37534;39.772;2.718;2024-03-25T07:48:10;100119.94;;;19.84;69.46
51460;BME280;37534;39.772;2.718;2024-03-25T07:50:36;100099.88;;;19.36;63.44
51460;BME280;37534;39.772;2.718;2024-03-25T07:53:01;100113.94;;;19.71;62.54
51460;BME280;37534;39.772;2.718;2024-03-25T07:55:27;100121.91;;;20.05;59.21
51460;BME280;37534;39.772;2.718;2024-03-25T07:57:52;100095.88;;;20.37;61.34
51460;BME280;37534;39.772;2.718;2024-03-25T08:00:18;100105.34;;;20.74;58.45
51460;BME280;37534;39.772;2.718;2024-03-25T08:02:44;100102.84;;;20.95;53.94
51460;BME280;37534;39.772;2.718;2024-03-25T08:05:09;100109.03;;;20.82;48.15
51460;BME280;37534;39.772;2.718;2024-03-25T08:07:34;100107.25;;;20.83;50.98
51460;BME280;37534;39.772;2.718;2024-03-25T08:10:00;100090.75;;;20.36;49.27
51460;BME280;37534;39.772;2.718;2024-03-25T08:12:25;100091.00;;;19.74;48.45
51460;BME280;37534;39.772;2.718;2024-03-25T08:14:51;100089.38;;;19.61;50.18
51460;BME280;37534;39.772;2.718;2024-03-25T08:17:17;100101.63;;;19.60;48.97
51460;BME280;37534;39.772;2.718;2024-03-25T08:19:42;100095.44;;;19.61;50.69
51460;BME280;37534;39.772;2.718;2024-03-25T08:22:08;100075.81;;;19.07;51.00
51460;BME280;37534;39.772;2.718;2024-03-25T08:24:33;100070.13;;;19.37;51.35
51460;BME280;37534;39.772;2.718;2024-03-25T08:26:59;100071.25;;;19.46;50.79
51460;BME280;37534;39.772;2.718;2024-03-25T08:29:24;100057.53;;;19.67;51.04
51460;BME280;37534;39.772;2.718;2024-03-25T08:31:50;100062.38;;;19.60;50.29
51460;BME280;37534;39.772;2.718;2024-03-25T08:34:15;100049.75;;;19.89;49.81
51460;BME280;37534;39.772;2.718;2024-03-25T08:36:42;100048.50;;;20.40;49.07
51460;BME280;37534;39.772;2.718;2024-03-25T08:39:07;100032.91;;;20.73;47.51
51460;BME280;37534;39.772;2.718;2024-03-25T08:41:33;100034.78;;;20.14;47.34
51460;BME280;37534;39.772;2.718;2024-03-25T08:43:58;100043.13;;;20.53;47.55
51460;BME280;37534;39.772;2.718;2024-03-25T08:46:24;100024.56;;;20.56;46.39
51460;BME280;37534;39.772;2.718;2024-03-25T08:48:49;100009.31;;;21.05;46.70
51460;BME280;37534;39.772;2.718;2024-03-25T08:51:15;100010.28;;;21.36;45.17
51460;BME280;37534;39.772;2.718;2024-03-25T08:53:41;100019.06;;;21.89;46.07
51460;BME280;37534;39.772;2.718;2024-03-25T08:56:06;100011.13;;;22.62;42.28
51460;BME280;37534;39.772;2.718;2024-03-25T08:58:35;100012.97;;;23.00;42.05
51460;BME280;37534;39.772;2.718;2024-03-25T09:01:00;100024.50;;;23.28;41.20
51460;BME280;37534;39.772;2.718;2024-03-25T09:03:26;100013.31;;;22.56;42.12
51460;BME280;37534;39.772;2.718;2024-03-25T09:05:51;100007.50;;;22.53;41.57
51460;BME280;37534;39.772;2.718;2024-03-25T09:08:17;99999.31;;;22.15;42.52
51460;BME280;37534;39.772;2.718;2024-03-25T09:10:46;100001.47;;;22.82;42.82
51460;BME280;37534;39.772;2.718;2024-03-25T09:13:32;99995.09;;;23.62;40.71
51460;BME280;37534;39.772;2.718;2024-03-25T09:18:24;99976.25;;;24.42;39.09
51460;BME280;37534;39.772;2.718;2024-03-25T09:20:49;99972.78;;;24.41;39.09
51460;BME280;37534;39.772;2.718;2024-03-25T09:23:15;99969.75;;;24.64;39.08
51460;BME280;37534;39.772;2.718;2024-03-25T09:25:50;99972.09;;;24.67;39.27
51460;BME280;37534;39.772;2.718;2024-03-25T09:28:16;99989.75;;;24.84;39.28
51460;BME280;37534;39.772;2.718;2024-03-25T09:30:42;99973.53;;;24.52;39.67
51460;BME280;37534;39.772;2.718;2024-03-25T09:33:07;99979.41;;;24.55;39.14
51460;BME280;37534;39.772;2.718;2024-03-25T09:35:34;99960.50;;;24.78;39.89
51460;BME280;37534;39.772;2.718;2024-03-25T09:37:59;99955.38;;;25.12;40.01
51460;BME280;37534;39.772;2.718;2024-03-25T09:40:25;99961.84;;;25.36;39.91
51460;BME280;37534;39.772;2.718;2024-03-25T09:42:56;99951.69;;;25.75;39.27
51460;BME280;37534;39.772;2.718;2024-03-25T09:45:26;99956.53;;;26.65;38.71
51460;BME280;37534;39.772;2.718;2024-03-25T09:47:54;99953.72;;;27.65;39.22
51460;BME280;37534;39.772;2.718;2024-03-25T09:50:20;99948.03;;;28.24;38.57
51460;BME280;37534;39.772;2.718;2024-03-25T09:52:48;99955.44;;;28.69;37.31
51460;BME280;37534;39.772;2.718;2024-03-25T09:55:14;99953.25;;;28.95;37.07
51460;BME280;37534;39.772;2.718;2024-03-25T09:57:41;99947.53;;;29.07;35.87
51460;BME280;37534;39.772;2.718;2024-03-25T10:00:08;99949.03;;;29.62;36.08
51460;BME280;37534;39.772;2.718;2024-03-25T10:02:38;99940.13;;;29.70;35.59
51460;BME280;37534;39.772;2.718;2024-03-25T10:05:05;99932.47;;;30.26;35.29
51460;BME280;37534;39.772;2.718;2024-03-25T10:07:32;99945.38;;;30.87;34.61
51460;BME280;37534;39.772;2.718;2024-03-25T10:10:05;99941.50;;;31.61;33.21
51460;BME280;37534;39.772;2.718;2024-03-25T10:12:32;99922.97;;;31.53;32.36
51460;BME280;37534;39.772;2.718;2024-03-25T10:14:57;99925.78;;;28.65;34.88
51460;BME280;37534;39.772;2.718;2024-03-25T10:17:27;99901.63;;;27.33;36.76
51460;BME280;37534;39.772;2.718;2024-03-25T10:19:55;99908.53;;;25.67;39.60
51460;BME280;37534;39.772;2.718;2024-03-25T10:22:21;99889.59;;;24.11;41.82
51460;BME280;37534;39.772;2.718;2024-03-25T10:24:47;99893.59;;;23.78;43.81
51460;BME280;37534;39.772;2.718;2024-03-25T10:27:19;99902.09;;;23.05;46.20
51460;BME280;37534;39.772;2.718;2024-03-25T10:29:52;99887.38;;;23.31;46.73
51460;BME280;37534;39.772;2.718;2024-03-25T10:32:18;99868.84;;;23.98;45.62
51460;BME280;37534;39.772;2.718;2024-03-25T10:34:44;99881.53;;;24.13;44.81
51460;BME280;37534;39.772;2.718;2024-03-25T10:37:11;99871.28;;;24.55;44.68
51460;BME280;37534;39.772;2.718;2024-03-25T10:39:47;99867.50;;;24.76;45.50
51460;BME280;37534;39.772;2.718;2024-03-25T10:42:14;99847.44;;;23.46;48.13
51460;BME280;37534;39.772;2.718;2024-03-25T10:44:40;99850.94;;;23.27;48.70
51460;BME280;37534;39.772;2.718;2024-03-25T10:47:07;99840.31;;;23.19;49.27
51460;BME280;37534;39.772;2.718;2024-03-25T10:52:01;99840.50;;;24.28;46.69
51460;BME280;37534;39.772;2.718;2024-03-25T10:54:29;99839.22;;;24.86;47.15
51460;BME280;37534;39.772;2.718;2024-03-25T10:56:58;99837.78;;;24.92;46.04
51460;BME280;37534;39.772;2.718;2024-03-25T10:59:26;99835.03;;;24.39;46.49
51460;BME280;37534;39.772;2.718;2024-03-25T11:01:52;99833.78;;;25.14;46.54
51460;BME280;37534;39.772;2.718;2024-03-25T11:04:19;99823.91;;;25.42;45.08
51460;BME280;37534;39.772;2.718;2024-03-25T11:06:45;99831.66;;;26.37;43.66
51460;BME280;37534;39.772;2.718;2024-03-25T11:09:10;99825.41;;;26.79;41.63
51460;BME280;37534;39.772;2.718;2024-03-25T11:11:36;99823.81;;;26.03;43.55
51460;BME280;37534;39.772;2.718;2024-03-25T11:14:15;99807.56;;;25.12;44.34
51460;BME280;37534;39.772;2.718;2024-03-25T11:16:40;99820.09;;;24.30;47.59
51460;BME280;37534;39.772;2.718;2024-03-25T11:19:06;99817.94;;;22.75;52.99
51460;BME280;37534;39.772;2.718;2024-03-25T11:21:35;99812.72;;;22.46;55.04
51460;BME280;37534;39.772;2.718;2024-03-25T11:24:08;99810.91;;;21.77;60.61
51460;BME280;37534;39.772;2.718;2024-03-25T11:26:33;99790.78;;;21.47;62.42
51460;BME280;37534;39.772;2.718;2024-03-25T11:29:01;99783.63;;;22.18;60.88
51460;BME280;37534;39.772;2.718;2024-03-25T11:31:27;99788.91;;;22.38;59.79
51460;BME280;37534;39.772;2.718;2024-03-25T11:33:53;99779.97;;;21.80;62.06
51460;BME280;37534;39.772;2.718;2024-03-25T11:36:20;99784.50;;;21.59;63.21
51460;BME280;37534;39.772;2.718;2024-03-25T11:39:00;99782.59;;;21.80;62.79
51460;BME280;37534;39.772;2.718;2024-03-25T11:41:29;99773.34;;;21.86;62.89
51460;BME280;37534;39.772;2.718;2024-03-25T11:43:55;99774.50;;;22.03;62.49
51460;BME280;37534;39.772;2.718;2024-03-25T11:46:24;99759.53;;;21.84;62.67
51460;BME280;37534;39.772;2.718;2024-03-25T11:48:50;99756.09;;;21.43;66.10
51460;BME280;37534;39.772;2.718;2024-03-25T11:51:19;99742.09;;;21.73;64.14
51460;BME280;37534;39.772;2.718;2024-03-25T11:53:45;99733.84;;;22.36;62.10
51460;BME280;37534;39.772;2.718;2024-03-25T11:56:11;99728.59;;;22.07;62.49
51460;BME280;37534;39.772;2.718;2024-03-25T11:58:37;99736.06;;;22.02;62.82
51460;BME280;37534;39.772;2.718;2024-03-25T12:01:03;99726.63;;;21.70;64.15
51460;BME280;37534;39.772;2.718;2024-03-25T12:03:29;99722.50;;;21.87;63.63
51460;BME280;37534;39.772;2.718;2024-03-25T12:05:55;99706.75;;;21.87;65.09
51460;BME280;37534;39.772;2.718;2024-03-25T12:08:21;99718.34;;;21.75;65.09
51460;BME280;37534;39.772;2.718;2024-03-25T12:10:51;99708.13;;;22.50;63.36
51460;BME280;37534;39.772;2.718;2024-03-25T12:13:35;99704.72;;;22.77;60.51
51460;BME280;37534;39.772;2.718;2024-03-25T12:16:06;99697.63;;;22.01;63.26
51460;BME280;37534;39.772;2.718;2024-03-25T12:18:34;99696.22;;;21.58;65.70
51460;BME280;37534;39.772;2.718;2024-03-25T12:21:00;99709.28;;;21.07;69.48
51460;BME280;37534;39.772;2.718;2024-03-25T12:23:30;99696.19;;;21.07;70.40
51460;BME280;37534;39.772;2.718;2024-03-25T12:25:55;99688.56;;;21.04;69.89
51460;BME280;37534;39.772;2.718;2024-03-25T12:28:22;99677.78;;;20.46;75.00
51460;BME280;37534;39.772;2.718;2024-03-25T12:30:52;99678.06;;;20.10;75.95
51460;BME280;37534;39.772;2.718;2024-03-25T12:33:18;99665.88;;;20.00;77.55
51460;BME280;37534;39.772;2.718;2024-03-25T12:35:48;99654.91;;;19.73;80.18
51460;BME280;37534;39.772;2.718;2024-03-25T12:38:26;99653.53;;;19.90;80.07
51460;BME280;37534;39.772;2.718;2024-03-25T12:41:07;99644.66;;;19.82;80.70
51460;BME280;37534;39.772;2.718;2024-03-25T12:43:34;99640.75;;;19.65;83.02
51460;BME280;37534;39.772;2.718;2024-03-25T12:46:00;99632.06;;;19.64;83.12
51460;BME280;37534;39.772;2.718;2024-03-25T12:48:26;99635.66;;;19.63;83.94
51460;BME280;37534;39.772;2.718;2024-03-25T12:50:52;99652.78;;;20.00;81.54
51460;BME280;37534;39.772;2.718;2024-03-25T12:53:21;99650.06;;;20.22;81.06
51460;BME280;37534;39.772;2.718;2024-03-25T12:55:46;99656.19;;;20.32;81.03